createdAt,value
2023-02-11T00:04:59.238Z,35.55
2023-02-11T00:10:07.033Z,34.75
2023-02-11T00:15:22.355Z,30.83
2023-02-11T00:20:30.895Z,30.52
2023-02-11T00:25:37.635Z,28.20
2023-02-11T00:30:43.015Z,29.05
2023-02-11T00:35:51.601Z,29.73
2023-02-11T00:40:57.672Z,30.98
2023-02-11T00:46:03.134Z,27.67
2023-02-11T00:52:10.319Z,26.30
2023-02-11T00:57:33.069Z,22.33
2023-02-11T01:02:50.363Z,23.52
2023-02-11T01:08:16.801Z,23.95
2023-02-11T01:13:42.351Z,22.83
2023-02-11T01:18:54.949Z,22.92
2023-02-11T01:24:04.690Z,24.63
2023-02-11T01:29:31.138Z,22.33
2023-02-11T01:34:43.611Z,22.05
2023-02-11T01:40:10.267Z,26.60
2023-02-11T01:46:19.891Z,32.13
2023-02-11T01:51:30.710Z,31.00
2023-02-11T01:56:49.348Z,27.48
2023-02-11T02:02:08.843Z,21.70
2023-02-11T02:07:29.232Z,20.88
2023-02-11T02:12:47.797Z,19.98
2023-02-11T02:18:35.549Z,20.75
2023-02-11T02:24:37.092Z,19.08
2023-02-11T02:30:21.916Z,17.42
2023-02-11T02:36:13.087Z,18.23
2023-02-11T02:46:58.046Z,20.17
2023-02-11T02:52:20.135Z,19.80
2023-02-11T03:03:20.353Z,19.35
2023-02-11T03:14:04.474Z,18.02
2023-02-11T03:19:30.749Z,20.73
2023-02-11T03:24:43.917Z,18.17
2023-02-11T03:30:00.796Z,19.40
2023-02-11T03:35:21.994Z,17.75
2023-02-11T03:40:52.501Z,16.92
2023-02-11T03:45:59.976Z,18.80
2023-02-11T03:51:24.660Z,18.73
2023-02-11T03:56:44.648Z,15.98
2023-02-11T04:02:12.849Z,17.95
2023-02-11T04:07:32.210Z,17.00
2023-02-11T04:13:17.859Z,18.65
2023-02-11T04:19:11.291Z,18.05
2023-02-11T04:25:21.846Z,19.48
2023-02-11T04:48:39.345Z,18.77
2023-02-11T05:07:26.735Z,24.33
2023-02-11T05:13:16.144Z,19.70
2023-02-11T05:18:54.388Z,24.75
2023-02-11T05:24:23.619Z,24.20
2023-02-11T05:30:10.330Z,23.83
2023-02-11T05:35:30.400Z,23.45
2023-02-11T05:40:39.601Z,24.42
2023-02-11T05:45:47.737Z,23.27
2023-02-11T05:50:53.377Z,22.23
2023-02-11T05:56:33.168Z,22.45
2023-02-11T06:13:48.148Z,22.40
2023-02-11T06:19:38.552Z,24.05
2023-02-11T06:25:09.503Z,28.80
2023-02-11T06:36:17.142Z,20.58
2023-02-11T06:41:29.229Z,19.77
2023-02-11T06:46:37.986Z,20.05
2023-02-11T06:51:51.499Z,20.85
2023-02-11T07:02:21.436Z,22.45
2023-02-11T07:07:34.205Z,42.70
2023-02-11T07:12:42.747Z,33.25
2023-02-11T07:18:02.901Z,26.50
2023-02-11T07:23:11.548Z,22.50
2023-02-11T07:28:17.446Z,27.35
2023-02-11T07:33:40.814Z,23.88
2023-02-11T07:39:00.073Z,19.55
2023-02-11T07:44:06.958Z,22.25
2023-02-11T07:49:38.822Z,23.30
2023-02-11T07:54:55.565Z,41.15
2023-02-11T08:00:01.433Z,27.58
2023-02-11T08:11:50.829Z,19.77
2023-02-11T08:17:07.851Z,18.33
2023-02-11T08:35:19.475Z,19.20
2023-02-11T08:40:18.494Z,17.65
2023-02-11T08:45:24.766Z,17.27
2023-02-11T08:50:33.177Z,21.67
2023-02-11T08:55:38.942Z,20.77
2023-02-11T09:00:47.741Z,19.20
2023-02-11T09:05:57.859Z,20.52
2023-02-11T09:11:03.734Z,19.50
2023-02-11T09:16:10.726Z,19.80
2023-02-11T09:21:21.810Z,19.67
2023-02-11T09:49:59.942Z,17.52
2023-02-11T10:00:43.270Z,15.35
2023-02-11T10:06:03.314Z,16.52
2023-02-11T10:11:30.610Z,14.13
2023-02-11T10:16:49.905Z,15.30
2023-02-11T10:34:05.636Z,14.30
2023-02-11T10:45:08.915Z,24.45
2023-02-11T10:50:29.018Z,27.33
2023-02-11T10:56:14.946Z,15.45
2023-02-11T11:01:24.691Z,15.50
2023-02-11T11:06:37.606Z,16.08
2023-02-11T11:11:55.829Z,14.52
2023-02-11T11:17:01.552Z,14.18
2023-02-11T11:22:10.048Z,13.23
2023-02-11T11:27:26.546Z,15.60
2023-02-11T11:32:35.017Z,15.27
2023-02-11T11:37:43.773Z,14.57
2023-02-11T11:47:58.577Z,11.32
2023-02-11T11:53:09.776Z,12.75
2023-02-11T11:58:27.330Z,12.68
2023-02-11T12:03:56.579Z,11.95
2023-02-11T12:09:13.937Z,12.27
2023-02-11T12:14:28.581Z,12.32
2023-02-11T12:19:46.611Z,12.93
2023-02-11T12:25:16.944Z,12.95
2023-02-11T12:36:00.596Z,12.68
2023-02-11T12:42:18.023Z,11.40
2023-02-11T12:52:52.736Z,14.43
2023-02-11T12:58:02.266Z,12.35
2023-02-11T13:03:17.398Z,17.48
2023-02-11T13:08:26.578Z,16.08
2023-02-11T13:13:35.953Z,16.65
2023-02-11T13:18:51.378Z,14.63
2023-02-11T13:24:01.889Z,12.98
2023-02-11T13:29:19.052Z,14.38
2023-02-11T13:34:58.284Z,27.73
2023-02-11T13:40:06.431Z,16.25
2023-02-11T13:45:21.655Z,20.55
2023-02-11T13:50:32.532Z,13.52
2023-02-11T13:55:39.080Z,12.55
2023-02-11T14:00:51.313Z,20.48
2023-02-11T14:06:31.593Z,13.93
2023-02-11T14:11:49.624Z,16.67
2023-02-11T14:17:31.706Z,13.95
2023-02-11T14:22:52.818Z,17.48
2023-02-11T14:28:06.449Z,19.73
2023-02-11T14:33:53.956Z,14.55
2023-02-11T14:39:13.165Z,14.30
2023-02-11T14:44:24.452Z,15.50
2023-02-11T14:49:32.871Z,13.90
2023-02-11T15:00:27.822Z,12.90
2023-02-11T15:05:37.210Z,14.43
2023-02-11T15:10:49.301Z,17.55
2023-02-11T15:16:25.128Z,17.23
2023-02-11T15:22:31.901Z,18.48
2023-02-11T15:27:46.875Z,16.83
2023-02-11T15:32:59.874Z,21.52
2023-02-11T15:38:11.409Z,19.08
2023-02-11T15:43:19.870Z,24.10
2023-02-11T15:48:35.058Z,20.17
2023-02-11T15:53:46.958Z,21.63
2023-02-11T15:58:58.050Z,30.92
2023-02-11T16:09:48.404Z,33.45
2023-02-11T16:15:01.299Z,37.05
2023-02-11T16:20:08.918Z,38.80
2023-02-11T16:25:22.576Z,33.72
2023-02-11T16:30:33.300Z,26.38
2023-02-11T16:41:13.964Z,29.83
2023-02-11T16:46:24.190Z,38.90
2023-02-11T16:51:32.334Z,32.38
2023-02-11T16:56:38.161Z,33.17
2023-02-11T17:01:53.338Z,31.13
2023-02-11T17:06:59.202Z,25.15
2023-02-11T17:12:05.061Z,20.02
2023-02-11T17:17:17.154Z,19.88
2023-02-11T17:22:26.261Z,21.25
2023-02-11T17:33:08.331Z,23.30
2023-02-11T17:38:56.305Z,21.90
2023-02-11T17:49:47.698Z,23.17
2023-02-11T19:54:05.185Z,31.08
2023-02-11T20:00:10.626Z,32.50
2023-02-11T20:11:03.714Z,24.70
2023-02-11T20:22:08.562Z,23.92
2023-02-11T20:27:46.571Z,23.13
2023-02-11T20:43:37.665Z,22.55
2023-02-11T20:55:43.451Z,23.92
2023-02-11T21:01:07.173Z,22.77
2023-02-11T21:07:06.612Z,25.27
2023-02-11T21:12:40.090Z,23.05
2023-02-11T21:18:03.033Z,20.13
2023-02-11T21:23:36.978Z,19.90
